sensor_id;sensor_type;location;lat;lon;timestamp;temperature;humidity
39621;DHT22;25309;48.686;9.170;2022-11-20T04:02:17;4.60;99.90
39621;DHT22;25309;48.686;9.170;2022-11-20T04:04:44;4.60;99.90
39621;DHT22;25309;48.686;9.170;2022-11-20T04:07:11;4.60;99.90
39621;DHT22;25309;48.686;9.170;2022-11-20T04:09:38;4.60;99.90
39621;DHT22;25309;48.686;9.170;2022-11-20T04:12:05;4.60;99.90
39621;DHT22;25309;48.686;9.170;2022-11-20T04:14:32;4.60;99.90
39621;DHT22;25309;48.686;9.170;2022-11-20T04:16:58;4.60;99.90
39621;DHT22;25309;48.686;9.170;2022-11-20T04:19:27;4.50;99.90
39621;DHT22;25309;48.686;9.170;2022-11-20T04:21:53;4.50;99.90
39621;DHT22;25309;48.686;9.170;2022-11-20T04:24:20;4.50;99.90
39621;DHT22;25309;48.686;9.170;2022-11-20T04:26:47;4.50;99.90
39621;DHT22;25309;48.686;9.170;2022-11-20T04:29:14;4.50;99.90
39621;DHT22;25309;48.686;9.170;2022-11-20T04:31:41;4.50;99.90
39621;DHT22;25309;48.686;9.170;2022-11-20T04:34:11;4.40;99.90
39621;DHT22;25309;48.686;9.170;2022-11-20T04:36:39;4.40;99.90
39621;DHT22;25309;48.686;9.170;2022-11-20T04:39:06;4.40;99.90
39621;DHT22;25309;48.686;9.170;2022-11-20T04:41:35;4.50;99.90
39621;DHT22;25309;48.686;9.170;2022-11-20T04:44:04;4.50;99.90
39621;DHT22;25309;48.686;9.170;2022-11-20T04:46:33;4.50;99.90
39621;DHT22;25309;48.686;9.170;2022-11-20T04:49:00;4.50;99.90
39621;DHT22;25309;48.686;9.170;2022-11-20T04:51:28;4.60;99.90
39621;DHT22;25309;48.686;9.170;2022-11-20T04:53:56;4.60;99.90
39621;DHT22;25309;48.686;9.170;2022-11-20T04:56:23;4.60;99.90
39621;DHT22;25309;48.686;9.170;2022-11-20T04:58:50;4.70;99.90
39621;DHT22;25309;48.686;9.170;2022-11-20T05:01:19;4.70;99.90
39621;DHT22;25309;48.686;9.170;2022-11-20T05:03:46;4.70;99.90
39621;DHT22;25309;48.686;9.170;2022-11-20T05:06:15;4.80;99.90
39621;DHT22;25309;48.686;9.170;2022-11-20T05:08:42;4.80;99.90
39621;DHT22;25309;48.686;9.170;2022-11-20T05:11:12;4.80;99.90
39621;DHT22;25309;48.686;9.170;2022-11-20T05:13:39;4.90;99.90
39621;DHT22;25309;48.686;9.170;2022-11-20T05:16:08;4.90;99.90
39621;DHT22;25309;48.686;9.170;2022-11-20T05:18:36;4.90;99.90
39621;DHT22;25309;48.686;9.170;2022-11-20T05:25:20;4.90;99.90
39621;DHT22;25309;48.686;9.170;2022-11-20T05:27:49;4.90;99.90
39621;DHT22;25309;48.686;9.170;2022-11-20T05:30:16;5.00;99.90
39621;DHT22;25309;48.686;9.170;2022-11-20T05:32:43;5.00;99.90
39621;DHT22;25309;48.686;9.170;2022-11-20T05:35:09;5.00;99.90
39621;DHT22;25309;48.686;9.170;2022-11-20T05:37:36;5.00;99.90
39621;DHT22;25309;48.686;9.170;2022-11-20T05:40:05;5.10;99.90
39621;DHT22;25309;48.686;9.170;2022-11-20T05:42:32;5.00;99.90
39621;DHT22;25309;48.686;9.170;2022-11-20T05:48:30;5.10;99.90
39621;DHT22;25309;48.686;9.170;2022-11-20T05:54:18;5.10;99.90
39621;DHT22;25309;48.686;9.170;2022-11-20T05:56:45;5.10;99.90
39621;DHT22;25309;48.686;9.170;2022-11-20T05:59:12;5.10;99.90
39621;DHT22;25309;48.686;9.170;2022-11-20T06:01:39;5.10;99.90
39621;DHT22;25309;48.686;9.170;2022-11-20T06:04:07;5.10;99.90
39621;DHT22;25309;48.686;9.170;2022-11-20T06:06:34;5.10;99.90
39621;DHT22;25309;48.686;9.170;2022-11-20T06:09:01;5.10;99.90
39621;DHT22;25309;48.686;9.170;2022-11-20T06:11:28;5.10;99.90
39621;DHT22;25309;48.686;9.170;2022-11-20T06:13:55;5.10;99.90
39621;DHT22;25309;48.686;9.170;2022-11-20T06:16:22;5.10;99.90
39621;DHT22;25309;48.686;9.170;2022-11-20T06:18:49;5.10;99.90
39621;DHT22;25309;48.686;9.170;2022-11-20T06:21:19;5.10;99.90
39621;DHT22;25309;48.686;9.170;2022-11-20T06:23:46;5.10;99.90
39621;DHT22;25309;48.686;9.170;2022-11-20T06:26:15;5.10;99.90
39621;DHT22;25309;48.686;9.170;2022-11-20T06:28:43;5.10;99.90
39621;DHT22;25309;48.686;9.170;2022-11-20T06:31:11;5.10;99.90
39621;DHT22;25309;48.686;9.170;2022-11-20T06:33:38;5.10;99.90
39621;DHT22;25309;48.686;9.170;2022-11-20T06:36:05;5.20;99.90
39621;DHT22;25309;48.686;9.170;2022-11-20T06:38:38;5.20;99.90
39621;DHT22;25309;48.686;9.170;2022-11-20T06:41:06;5.20;99.90
39621;DHT22;25309;48.686;9.170;2022-11-20T06:43:33;5.20;99.90
39621;DHT22;25309;48.686;9.170;2022-11-20T06:46:00;5.20;99.90
39621;DHT22;25309;48.686;9.170;2022-11-20T06:48:27;5.20;99.90
39621;DHT22;25309;48.686;9.170;2022-11-20T06:50:54;5.20;99.90
39621;DHT22;25309;48.686;9.170;2022-11-20T06:53:22;5.30;99.90
39621;DHT22;25309;48.686;9.170;2022-11-20T06:55:51;5.30;99.90
39621;DHT22;25309;48.686;9.170;2022-11-20T06:58:18;5.30;99.90
39621;DHT22;25309;48.686;9.170;2022-11-20T07:00:45;5.20;99.90
39621;DHT22;25309;48.686;9.170;2022-11-20T07:03:12;5.20;99.90
39621;DHT22;25309;48.686;9.170;2022-11-20T07:05:39;5.20;99.90
39621;DHT22;25309;48.686;9.170;2022-11-20T07:08:07;5.30;99.90
39621;DHT22;25309;48.686;9.170;2022-11-20T07:10:34;5.30;99.90
39621;DHT22;25309;48.686;9.170;2022-11-20T07:13:03;5.20;99.90
39621;DHT22;25309;48.686;9.170;2022-11-20T07:15:30;5.30;99.90
39621;DHT22;25309;48.686;9.170;2022-11-20T07:17:58;5.30;99.90
39621;DHT22;25309;48.686;9.170;2022-11-20T07:20:25;5.20;99.90
39621;DHT22;25309;48.686;9.170;2022-11-20T07:22:53;5.30;99.90
39621;DHT22;25309;48.686;9.170;2022-11-20T07:25:20;5.30;99.90
39621;DHT22;25309;48.686;9.170;2022-11-20T07:27:47;5.30;99.90
39621;DHT22;25309;48.686;9.170;2022-11-20T07:30:16;5.30;99.90
39621;DHT22;25309;48.686;9.170;2022-11-20T07:32:46;5.30;99.90
39621;DHT22;25309;48.686;9.170;2022-11-20T07:35:13;5.30;99.90
39621;DHT22;25309;48.686;9.170;2022-11-20T07:37:41;5.30;99.90
39621;DHT22;25309;48.686;9.170;2022-11-20T07:40:08;5.40;99.90
39621;DHT22;25309;48.686;9.170;2022-11-20T07:42:35;5.40;99.90
39621;DHT22;25309;48.686;9.170;2022-11-20T07:45:03;5.40;99.90
39621;DHT22;25309;48.686;9.170;2022-11-20T07:47:36;5.40;99.90
39621;DHT22;25309;48.686;9.170;2022-11-20T07:50:03;5.40;99.90
39621;DHT22;25309;48.686;9.170;2022-11-20T07:52:30;5.40;99.90
39621;DHT22;25309;48.686;9.170;2022-11-20T07:54:57;5.50;99.90
39621;DHT22;25309;48.686;9.170;2022-11-20T07:57:24;5.50;99.90
39621;DHT22;25309;48.686;9.170;2022-11-20T07:59:54;5.60;99.90
39621;DHT22;25309;48.686;9.170;2022-11-20T08:02:21;5.70;99.90
39621;DHT22;25309;48.686;9.170;2022-11-20T08:04:49;5.70;99.90
39621;DHT22;25309;48.686;9.170;2022-11-20T08:07:16;5.70;99.90
39621;DHT22;25309;48.686;9.170;2022-11-20T08:09:43;5.70;99.90
39621;DHT22;25309;48.686;9.170;2022-11-20T08:12:17;5.70;99.90
39621;DHT22;25309;48.686;9.170;2022-11-20T08:15:04;5.80;99.90
39621;DHT22;25309;48.686;9.170;2022-11-20T08:17:38;5.80;99.90
39621;DHT22;25309;48.686;9.170;2022-11-20T08:20:07;5.80;99.90
39621;DHT22;25309;48.686;9.170;2022-11-20T08:22:34;5.90;99.90
39621;DHT22;25309;48.686;9.170;2022-11-20T08:25:01;5.90;99.90
39621;DHT22;25309;48.686;9.170;2022-11-20T08:27:29;5.90;99.90
39621;DHT22;25309;48.686;9.170;2022-11-20T08:29:55;6.00;99.90
39621;DHT22;25309;48.686;9.170;2022-11-20T08:32:23;6.00;99.90
39621;DHT22;25309;48.686;9.170;2022-11-20T08:34:50;6.00;99.90
39621;DHT22;25309;48.686;9.170;2022-11-20T08:37:18;6.00;99.90
39621;DHT22;25309;48.686;9.170;2022-11-20T08:39:45;6.00;99.90
39621;DHT22;25309;48.686;9.170;2022-11-20T08:42:13;6.00;99.90
39621;DHT22;25309;48.686;9.170;2022-11-20T08:44:40;5.90;99.90
39621;DHT22;25309;48.686;9.170;2022-11-20T08:47:07;6.00;99.90
39621;DHT22;25309;48.686;9.170;2022-11-20T08:49:34;6.00;99.90
39621;DHT22;25309;48.686;9.170;2022-11-20T08:52:00;6.00;99.90
39621;DHT22;25309;48.686;9.170;2022-11-20T08:54:29;6.00;99.90
39621;DHT22;25309;48.686;9.170;2022-11-20T08:56:55;6.00;99.90
39621;DHT22;25309;48.686;9.170;2022-11-20T08:59:22;6.00;99.90
39621;DHT22;25309;48.686;9.170;2022-11-20T09:02:09;6.00;99.90
39621;DHT22;25309;48.686;9.170;2022-11-20T09:04:36;6.10;99.90
39621;DHT22;25309;48.686;9.170;2022-11-20T09:07:03;6.10;99.90
39621;DHT22;25309;48.686;9.170;2022-11-20T09:09:31;6.20;99.90
39621;DHT22;25309;48.686;9.170;2022-11-20T09:11:59;6.20;99.90
39621;DHT22;25309;48.686;9.170;2022-11-20T09:14:26;6.30;99.90
39621;DHT22;25309;48.686;9.170;2022-11-20T09:16:55;6.30;99.90
39621;DHT22;25309;48.686;9.170;2022-11-20T09:19:23;6.30;99.90
39621;DHT22;25309;48.686;9.170;2022-11-20T09:22:06;6.40;99.90
39621;DHT22;25309;48.686;9.170;2022-11-20T09:24:34;6.40;99.90
39621;DHT22;25309;48.686;9.170;2022-11-20T09:27:04;6.40;99.90
39621;DHT22;25309;48.686;9.170;2022-11-20T09:29:31;6.40;99.90
39621;DHT22;25309;48.686;9.170;2022-11-20T09:31:59;6.40;99.90
39621;DHT22;25309;48.686;9.170;2022-11-20T09:34:25;6.40;99.90
39621;DHT22;25309;48.686;9.170;2022-11-20T09:36:53;6.40;99.90
39621;DHT22;25309;48.686;9.170;2022-11-20T09:39:20;6.50;99.90
39621;DHT22;25309;48.686;9.170;2022-11-20T09:42:22;6.50;99.90
39621;DHT22;25309;48.686;9.170;2022-11-20T09:45:02;6.50;99.90
39621;DHT22;25309;48.686;9.170;2022-11-20T09:47:42;6.50;99.90
39621;DHT22;25309;48.686;9.170;2022-11-20T09:50:23;6.50;99.90
39621;DHT22;25309;48.686;9.170;2022-11-20T09:53:04;6.60;99.90
39621;DHT22;25309;48.686;9.170;2022-11-20T09:55:35;6.50;99.90
39621;DHT22;25309;48.686;9.170;2022-11-20T09:58:06;6.50;99.90
39621;DHT22;25309;48.686;9.170;2022-11-20T10:00:34;6.60;99.90
39621;DHT22;25309;48.686;9.170;2022-11-20T10:03:10;6.60;99.90
39621;DHT22;25309;48.686;9.170;2022-11-20T10:05:42;6.70;99.90
39621;DHT22;25309;48.686;9.170;2022-11-20T10:08:16;6.70;99.90
39621;DHT22;25309;48.686;9.170;2022-11-20T10:10:46;6.70;99.90
39621;DHT22;25309;48.686;9.170;2022-11-20T10:13:35;6.70;99.90
39621;DHT22;25309;48.686;9.170;2022-11-20T10:16:16;6.70;99.90
39621;DHT22;25309;48.686;9.170;2022-11-20T10:18:59;6.70;99.90
39621;DHT22;25309;48.686;9.170;2022-11-20T10:21:35;6.70;99.90
39621;DHT22;25309;48.686;9.170;2022-11-20T10:24:33;6.70;99.90
39621;DHT22;25309;48.686;9.170;2022-11-20T10:27:09;6.70;99.90
39621;DHT22;25309;48.686;9.170;2022-11-20T10:29:46;6.70;99.90
39621;DHT22;25309;48.686;9.170;2022-11-20T10:32:17;6.60;99.90
39621;DHT22;25309;48.686;9.170;2022-11-20T10:34:50;6.60;99.90
39621;DHT22;25309;48.686;9.170;2022-11-20T10:37:22;6.50;99.90
39621;DHT22;25309;48.686;9.170;2022-11-20T10:39:53;6.50;99.90
39621;DHT22;25309;48.686;9.170;2022-11-20T10:42:28;6.40;99.90
39621;DHT22;25309;48.686;9.170;2022-11-20T10:51:10;6.40;99.90
39621;DHT22;25309;48.686;9.170;2022-11-20T10:54:09;6.40;99.90
39621;DHT22;25309;48.686;9.170;2022-11-20T10:56:41;6.40;99.90
39621;DHT22;25309;48.686;9.170;2022-11-20T11:02:17;6.50;99.90
39621;DHT22;25309;48.686;9.170;2022-11-20T11:04:46;6.50;99.90
39621;DHT22;25309;48.686;9.170;2022-11-20T11:07:17;6.50;99.90
39621;DHT22;25309;48.686;9.170;2022-11-20T11:09:49;6.50;99.90
39621;DHT22;25309;48.686;9.170;2022-11-20T11:12:16;6.60;99.90
39621;DHT22;25309;48.686;9.170;2022-11-20T11:14:45;6.60;99.90
39621;DHT22;25309;48.686;9.170;2022-11-20T11:17:24;6.60;99.90
39621;DHT22;25309;48.686;9.170;2022-11-20T11:20:04;6.70;99.90
39621;DHT22;25309;48.686;9.170;2022-11-20T11:22:33;6.80;99.90
39621;DHT22;25309;48.686;9.170;2022-11-20T11:25:01;6.90;99.90
39621;DHT22;25309;48.686;9.170;2022-11-20T11:27:28;7.00;99.90
39621;DHT22;25309;48.686;9.170;2022-11-20T11:30:03;7.00;99.90
39621;DHT22;25309;48.686;9.170;2022-11-20T11:32:39;7.10;99.90
39621;DHT22;25309;48.686;9.170;2022-11-20T11:35:20;7.20;99.90
39621;DHT22;25309;48.686;9.170;2022-11-20T11:37:47;7.20;99.90
39621;DHT22;25309;48.686;9.170;2022-11-20T11:40:15;7.30;99.90
39621;DHT22;25309;48.686;9.170;2022-11-20T11:42:54;7.30;99.90
39621;DHT22;25309;48.686;9.170;2022-11-20T11:45:21;7.30;99.90
39621;DHT22;25309;48.686;9.170;2022-11-20T11:47:51;7.30;99.90
39621;DHT22;25309;48.686;9.170;2022-11-20T11:50:21;7.30;99.90
39621;DHT22;25309;48.686;9.170;2022-11-20T11:52:55;7.50;99.90
39621;DHT22;25309;48.686;9.170;2022-11-20T11:55:29;7.80;99.90
39621;DHT22;25309;48.686;9.170;2022-11-20T11:58:08;8.10;99.90
39621;DHT22;25309;48.686;9.170;2022-11-20T12:00:38;8.50;99.90
39621;DHT22;25309;48.686;9.170;2022-11-20T12:03:12;8.80;99.90
39621;DHT22;25309;48.686;9.170;2022-11-20T12:05:43;9.10;99.90
39621;DHT22;25309;48.686;9.170;2022-11-20T12:08:15;9.40;99.90
39621;DHT22;25309;48.686;9.170;2022-11-20T12:10:48;9.50;99.90
39621;DHT22;25309;48.686;9.170;2022-11-20T12:13:34;9.60;99.90
39621;DHT22;25309;48.686;9.170;2022-11-20T12:16:04;9.60;99.90
39621;DHT22;25309;48.686;9.170;2022-11-20T12:18:32;9.70;99.90
39621;DHT22;25309;48.686;9.170;2022-11-20T12:21:11;9.90;99.90
39621;DHT22;25309;48.686;9.170;2022-11-20T12:23:47;9.90;99.90
39621;DHT22;25309;48.686;9.170;2022-11-20T12:26:25;9.90;99.90
39621;DHT22;25309;48.686;9.170;2022-11-20T12:29:04;9.80;99.90
39621;DHT22;25309;48.686;9.170;2022-11-20T12:31:50;9.70;99.90
39621;DHT22;25309;48.686;9.170;2022-11-20T12:42:27;9.30;99.90
39621;DHT22;25309;48.686;9.170;2022-11-20T12:46:21;9.20;99.90
39621;DHT22;25309;48.686;9.170;2022-11-20T12:49:05;9.10;99.90
39621;DHT22;25309;48.686;9.170;2022-11-20T12:51:47;9.10;99.90
39621;DHT22;25309;48.686;9.170;2022-11-20T12:54:41;9.10;99.90
39621;DHT22;25309;48.686;9.170;2022-11-20T12:57:15;9.10;99.90
39621;DHT22;25309;48.686;9.170;2022-11-20T13:00:00;9.10;99.90
39621;DHT22;25309;48.686;9.170;2022-11-20T13:02:36;9.00;99.90
39621;DHT22;25309;48.686;9.170;2022-11-20T13:05:20;8.90;99.90
39621;DHT22;25309;48.686;9.170;2022-11-20T13:07:51;8.90;99.90
39621;DHT22;25309;48.686;9.170;2022-11-20T13:10:23;8.80;99.90
39621;DHT22;25309;48.686;9.170;2022-11-20T13:12:56;8.70;99.90
39621;DHT22;25309;48.686;9.170;2022-11-20T13:15:39;8.70;99.90
39621;DHT22;25309;48.686;9.170;2022-11-20T13:18:10;8.80;99.90
39621;DHT22;25309;48.686;9.170;2022-11-20T13:24:57;9.10;99.90
39621;DHT22;25309;48.686;9.170;2022-11-20T13:27:24;9.20;99.90
39621;DHT22;25309;48.686;9.170;2022-11-20T13:30:10;9.30;99.90
39621;DHT22;25309;48.686;9.170;2022-11-20T13:32:52;9.30;99.90
39621;DHT22;25309;48.686;9.170;2022-11-20T13:35:26;9.20;99.90
39621;DHT22;25309;48.686;9.170;2022-11-20T13:38:04;9.20;99.90
39621;DHT22;25309;48.686;9.170;2022-11-20T13:40:31;9.20;99.90
39621;DHT22;25309;48.686;9.170;2022-11-20T13:46:56;9.10;99.90
39621;DHT22;25309;48.686;9.170;2022-11-20T13:49:27;9.00;99.90
39621;DHT22;25309;48.686;9.170;2022-11-20T13:52:04;9.10;99.90
39621;DHT22;25309;48.686;9.170;2022-11-20T13:54:59;9.30;99.90
39621;DHT22;25309;48.686;9.170;2022-11-20T13:57:51;9.40;99.90
39621;DHT22;25309;48.686;9.170;2022-11-20T14:00:20;9.30;99.90
39621;DHT22;25309;48.686;9.170;2022-11-20T14:02:59;9.30;99.90
39621;DHT22;25309;48.686;9.170;2022-11-20T14:05:32;9.30;99.90
39621;DHT22;25309;48.686;9.170;2022-11-20T14:08:03;9.20;99.90
39621;DHT22;25309;48.686;9.170;2022-11-20T14:10:30;9.20;99.90
39621;DHT22;25309;48.686;9.170;2022-11-20T14:12:58;9.00;99.90
39621;DHT22;25309;48.686;9.170;2022-11-20T14:15:36;8.80;99.90
39621;DHT22;25309;48.686;9.170;2022-11-20T14:18:12;8.70;99.90
39621;DHT22;25309;48.686;9.170;2022-11-20T14:20:42;8.50;99.90
39621;DHT22;25309;48.686;9.170;2022-11-20T14:23:10;8.40;99.90
39621;DHT22;25309;48.686;9.170;2022-11-20T14:25:42;8.40;99.90
39621;DHT22;25309;48.686;9.170;2022-11-20T14:28:11;8.30;99.90
39621;DHT22;25309;48.686;9.170;2022-11-20T14:30:47;8.30;99.90
39621;DHT22;25309;48.686;9.170;2022-11-20T14:33:14;8.20;99.90
39621;DHT22;25309;48.686;9.170;2022-11-20T14:35:46;8.10;99.90
39621;DHT22;25309;48.686;9.170;2022-11-20T14:38:16;8.10;99.90
39621;DHT22;25309;48.686;9.170;2022-11-20T14:40:44;8.10;99.90
39621;DHT22;25309;48.686;9.170;2022-11-20T14:43:20;8.10;99.90
39621;DHT22;25309;48.686;9.170;2022-11-20T14:45:59;8.10;99.90
39621;DHT22;25309;48.686;9.170;2022-11-20T14:48:30;8.00;99.90
39621;DHT22;25309;48.686;9.170;2022-11-20T14:50:59;8.00;99.90
39621;DHT22;25309;48.686;9.170;2022-11-20T14:53:26;7.90;99.90
39621;DHT22;25309;48.686;9.170;2022-11-20T14:55:58;7.90;99.90
39621;DHT22;25309;48.686;9.170;2022-11-20T14:58:27;7.80;99.90
39621;DHT22;25309;48.686;9.170;2022-11-20T15:00:55;7.70;99.90
39621;DHT22;25309;48.686;9.170;2022-11-20T15:03:23;7.70;99.90
39621;DHT22;25309;48.686;9.170;2022-11-20T15:05:58;7.70;99.90
39621;DHT22;25309;48.686;9.170;2022-11-20T15:08:50;7.70;99.90
39621;DHT22;25309;48.686;9.170;2022-11-20T15:11:18;7.60;99.90
39621;DHT22;25309;48.686;9.170;2022-11-20T15:13:46;7.50;99.90
39621;DHT22;25309;48.686;9.170;2022-11-20T15:16:18;7.50;99.90
39621;DHT22;25309;48.686;9.170;2022-11-20T15:18:45;7.40;99.90
39621;DHT22;25309;48.686;9.170;2022-11-20T15:21:15;7.30;99.90
39621;DHT22;25309;48.686;9.170;2022-11-20T15:23:43;7.20;99.90
39621;DHT22;25309;48.686;9.170;2022-11-20T15:26:12;7.20;99.90
39621;DHT22;25309;48.686;9.170;2022-11-20T15:28:46;7.10;99.90
39621;DHT22;25309;48.686;9.170;2022-11-20T15:31:17;7.10;99.90
39621;DHT22;25309;48.686;9.170;2022-11-20T15:33:45;7.10;99.90
39621;DHT22;25309;48.686;9.170;2022-11-20T15:36:13;7.00;99.90
39621;DHT22;25309;48.686;9.170;2022-11-20T15:42:41;7.00;99.90
39621;DHT22;25309;48.686;9.170;2022-11-20T15:45:29;7.00;99.90
39621;DHT22;25309;48.686;9.170;2022-11-20T15:47:57;7.00;99.90
39621;DHT22;25309;48.686;9.170;2022-11-20T15:50:30;7.10;99.90
39621;DHT22;25309;48.686;9.170;2022-11-20T15:53:01;7.10;99.90
39621;DHT22;25309;48.686;9.170;2022-11-20T15:55:28;7.10;99.90
39621;DHT22;25309;48.686;9.170;2022-11-20T15:57:55;7.10;99.90
39621;DHT22;25309;48.686;9.170;2022-11-20T16:00:22;7.10;99.90
39621;DHT22;25309;48.686;9.170;2022-11-20T16:02:49;7.10;99.90
39621;DHT22;25309;48.686;9.170;2022-11-20T16:05:16;7.00;99.90
39621;DHT22;25309;48.686;9.170;2022-11-20T16:07:44;7.00;99.90
39621;DHT22;25309;48.686;9.170;2022-11-20T16:10:12;6.90;99.90
39621;DHT22;25309;48.686;9.170;2022-11-20T16:12:39;6.90;99.90
39621;DHT22;25309;48.686;9.170;2022-11-20T16:15:24;7.00;99.90
39621;DHT22;25309;48.686;9.170;2022-11-20T16:18:11;6.90;99.90
39621;DHT22;25309;48.686;9.170;2022-11-20T16:20:38;6.90;99.90
39621;DHT22;25309;48.686;9.170;2022-11-20T16:23:06;6.90;99.90
39621;DHT22;25309;48.686;9.170;2022-11-20T16:25:35;6.90;99.90
39621;DHT22;25309;48.686;9.170;2022-11-20T16:28:01;7.00;99.90
39621;DHT22;25309;48.686;9.170;2022-11-20T16:30:28;7.00;99.90
39621;DHT22;25309;48.686;9.170;2022-11-20T16:32:55;7.00;99.90
39621;DHT22;25309;48.686;9.170;2022-11-20T16:35:22;7.00;99.90
39621;DHT22;25309;48.686;9.170;2022-11-20T16:37:49;7.00;99.90
39621;DHT22;25309;48.686;9.170;2022-11-20T16:40:16;7.10;99.90
39621;DHT22;25309;48.686;9.170;2022-11-20T16:42:44;7.10;99.90
39621;DHT22;25309;48.686;9.170;2022-11-20T16:45:11;7.10;99.90
39621;DHT22;25309;48.686;9.170;2022-11-20T16:47:38;7.10;99.90
39621;DHT22;25309;48.686;9.170;2022-11-20T16:50:06;7.10;99.90
39621;DHT22;25309;48.686;9.170;2022-11-20T16:52:33;7.00;99.90
39621;DHT22;25309;48.686;9.170;2022-11-20T16:55:00;7.00;99.90
39621;DHT22;25309;48.686;9.170;2022-11-20T16:57:27;6.90;99.90
39621;DHT22;25309;48.686;9.170;2022-11-20T16:59:56;6.90;99.90
39621;DHT22;25309;48.686;9.170;2022-11-20T17:02:28;7.00;99.90
39621;DHT22;25309;48.686;9.170;2022-11-20T17:04:55;7.00;99.90
39621;DHT22;25309;48.686;9.170;2022-11-20T17:07:22;7.00;99.90
39621;DHT22;25309;48.686;9.170;2022-11-20T17:09:49;6.90;99.90
39621;DHT22;25309;48.686;9.170;2022-11-20T17:12:16;6.90;99.90
39621;DHT22;25309;48.686;9.170;2022-11-20T17:14:42;6.80;99.90
39621;DHT22;25309;48.686;9.170;2022-11-20T17:17:11;6.80;99.90
39621;DHT22;25309;48.686;9.170;2022-11-20T17:19:37;6.80;99.90
39621;DHT22;25309;48.686;9.170;2022-11-20T17:22:04;6.80;99.90
39621;DHT22;25309;48.686;9.170;2022-11-20T17:24:31;6.80;99.90
39621;DHT22;25309;48.686;9.170;2022-11-20T17:26:59;6.80;99.90
39621;DHT22;25309;48.686;9.170;2022-11-20T17:29:26;6.80;99.90
39621;DHT22;25309;48.686;9.170;2022-11-20T17:31:53;6.80;99.90
39621;DHT22;25309;48.686;9.170;2022-11-20T17:34:21;6.90;99.90
39621;DHT22;25309;48.686;9.170;2022-11-20T17:36:49;6.90;99.90
39621;DHT22;25309;48.686;9.170;2022-11-20T17:39:16;6.90;99.90
39621;DHT22;25309;48.686;9.170;2022-11-20T17:41:43;6.90;99.90
39621;DHT22;25309;48.686;9.170;2022-11-20T17:44:11;6.90;99.90
39621;DHT22;25309;48.686;9.170;2022-11-20T17:46:38;6.90;99.90
39621;DHT22;25309;48.686;9.170;2022-11-20T17:49:05;6.90;99.90
39621;DHT22;25309;48.686;9.170;2022-11-20T17:51:34;6.90;99.90
39621;DHT22;25309;48.686;9.170;2022-11-20T17:54:03;6.90;99.90
39621;DHT22;25309;48.686;9.170;2022-11-20T17:56:31;6.90;99.90
39621;DHT22;25309;48.686;9.170;2022-11-20T17:59:18;6.90;99.90
39621;DHT22;25309;48.686;9.170;2022-11-20T18:01:45;6.90;99.90
39621;DHT22;25309;48.686;9.170;2022-11-20T18:04:13;6.90;99.90
39621;DHT22;25309;48.686;9.170;2022-11-20T18:06:41;6.90;99.90
39621;DHT22;25309;48.686;9.170;2022-11-20T18:09:08;6.90;99.90
39621;DHT22;25309;48.686;9.170;2022-11-20T18:11:37;6.90;99.90
39621;DHT22;25309;48.686;9.170;2022-11-20T18:14:06;6.90;99.90
39621;DHT22;25309;48.686;9.170;2022-11-20T18:16:56;6.90;99.90
39621;DHT22;25309;48.686;9.170;2022-11-20T18:19:24;6.80;99.90
39621;DHT22;25309;48.686;9.170;2022-11-20T18:21:59;6.90;99.90
39621;DHT22;25309;48.686;9.170;2022-11-20T18:24:27;6.80;99.90
39621;DHT22;25309;48.686;9.170;2022-11-20T18:26:54;6.80;99.90
39621;DHT22;25309;48.686;9.170;2022-11-20T18:29:21;6.80;99.90
39621;DHT22;25309;48.686;9.170;2022-11-20T18:31:48;6.80;99.90
39621;DHT22;25309;48.686;9.170;2022-11-20T18:34:15;6.80;99.90
39621;DHT22;25309;48.686;9.170;2022-11-20T18:36:42;6.80;99.90
39621;DHT22;25309;48.686;9.170;2022-11-20T18:39:13;6.80;99.90
39621;DHT22;25309;48.686;9.170;2022-11-20T18:41:40;6.80;99.90
39621;DHT22;25309;48.686;9.170;2022-11-20T18:44:27;6.90;99.90
39621;DHT22;25309;48.686;9.170;2022-11-20T18:48:02;6.80;99.90
39621;DHT22;25309;48.686;9.170;2022-11-20T18:50:29;6.70;99.90
39621;DHT22;25309;48.686;9.170;2022-11-20T18:52:56;6.60;99.90
39621;DHT22;25309;48.686;9.170;2022-11-20T18:55:24;6.50;99.90
39621;DHT22;25309;48.686;9.170;2022-11-20T18:57:51;6.50;99.90
39621;DHT22;25309;48.686;9.170;2022-11-20T19:00:19;6.60;99.90
39621;DHT22;25309;48.686;9.170;2022-11-20T19:02:46;6.60;99.90
39621;DHT22;25309;48.686;9.170;2022-11-20T19:05:14;6.50;99.90
39621;DHT22;25309;48.686;9.170;2022-11-20T19:07:41;6.30;99.90
39621;DHT22;25309;48.686;9.170;2022-11-20T19:10:08;6.10;99.90
39621;DHT22;25309;48.686;9.170;2022-11-20T19:12:37;5.80;99.90
39621;DHT22;25309;48.686;9.170;2022-11-20T19:15:04;5.70;99.90
39621;DHT22;25309;48.686;9.170;2022-11-20T19:17:31;5.60;99.90
39621;DHT22;25309;48.686;9.170;2022-11-20T19:19:58;5.60;99.90
39621;DHT22;25309;48.686;9.170;2022-11-20T19:22:25;5.50;99.90
39621;DHT22;25309;48.686;9.170;2022-11-20T19:29:13;5.40;99.90
39621;DHT22;25309;48.686;9.170;2022-11-20T19:31:41;5.30;99.90
39621;DHT22;25309;48.686;9.170;2022-11-20T19:34:09;5.30;99.90
39621;DHT22;25309;48.686;9.170;2022-11-20T19:36:39;5.40;99.90
39621;DHT22;25309;48.686;9.170;2022-11-20T19:39:10;5.40;99.90
39621;DHT22;25309;48.686;9.170;2022-11-20T19:41:38;5.40;99.90
39621;DHT22;25309;48.686;9.170;2022-11-20T19:44:07;5.40;99.90
39621;DHT22;25309;48.686;9.170;2022-11-20T19:46:37;5.40;99.90
39621;DHT22;25309;48.686;9.170;2022-11-20T19:49:05;5.40;99.90
39621;DHT22;25309;48.686;9.170;2022-11-20T19:51:36;5.40;99.90
39621;DHT22;25309;48.686;9.170;2022-11-20T19:54:03;5.40;99.90
39621;DHT22;25309;48.686;9.170;2022-11-20T19:56:31;5.50;99.90
39621;DHT22;25309;48.686;9.170;2022-11-20T19:58:59;5.40;99.90
39621;DHT22;25309;48.686;9.170;2022-11-20T20:01:28;5.50;99.90
39621;DHT22;25309;48.686;9.170;2022-11-20T20:03:58;5.50;99.90
39621;DHT22;25309;48.686;9.170;2022-11-20T20:06:32;5.50;99.90
39621;DHT22;25309;48.686;9.170;2022-11-20T20:09:01;5.50;99.90
39621;DHT22;25309;48.686;9.170;2022-11-20T20:11:30;5.50;99.90
39621;DHT22;25309;48.686;9.170;2022-11-20T20:13:59;5.50;99.90
39621;DHT22;25309;48.686;9.170;2022-11-20T20:16:26;5.50;99.90
39621;DHT22;25309;48.686;9.170;2022-11-20T20:18:57;5.50;99.90
39621;DHT22;25309;48.686;9.170;2022-11-20T20:21:24;5.50;99.90
39621;DHT22;25309;48.686;9.170;2022-11-20T20:23:52;5.50;99.90
39621;DHT22;25309;48.686;9.170;2022-11-20T20:26:20;5.50;99.90
39621;DHT22;25309;48.686;9.170;2022-11-20T20:28:47;5.60;99.90
39621;DHT22;25309;48.686;9.170;2022-11-20T20:31:16;5.60;99.90
39621;DHT22;25309;48.686;9.170;2022-11-20T20:33:44;5.50;99.90
39621;DHT22;25309;48.686;9.170;2022-11-20T20:36:14;5.50;99.90
39621;DHT22;25309;48.686;9.170;2022-11-20T20:38:41;5.50;99.90
39621;DHT22;25309;48.686;9.170;2022-11-20T20:41:09;5.50;99.90
39621;DHT22;25309;48.686;9.170;2022-11-20T20:43:36;5.40;99.90
39621;DHT22;25309;48.686;9.170;2022-11-20T20:46:22;5.30;99.90
39621;DHT22;25309;48.686;9.170;2022-11-20T20:48:55;5.30;99.90
39621;DHT22;25309;48.686;9.170;2022-11-20T20:51:23;5.30;99.90
39621;DHT22;25309;48.686;9.170;2022-11-20T20:53:50;5.30;99.90